Milan, MI (48160)

6:40 AM EST on March 04, 2015 (GMT -0500)
Covington Drive | Change Station
CLOSE
Current Station
Personal Weather Station
Location: Saline, MI
Elevation: 810 ft
Nearby Weather Stations

Elev 810 ft 42.15 °N, 83.74 °W | Updated 3 minutes ago

Overcast
Overcast
30.2 °F
Feels Like 30 °F
N
2.2
Wind Variable Wind from West
Gusts 4.5 mph

Today
High -- | Low -- °F
--% Chance of Precip.
Yesterday
High -- | Low -- °F
Precip. -- in
7:05 AM 6:28 PM
Waxing Gibbous, 99% visible
Pressure 29.88 in
Visibility 9.0 miles
Clouds Overcast 2800 ft
Windchill 30 °F
Dew Point 20 °F
Humidity 64%
Rainfall 0.00 in
Snow Depth Not available.
UV 0 out of 12
Pollen .40 out of 12
Air Quality Not available.
Flu Activity Not available.
METAR KARB 041053Z AUTO 26005KT 9SM OVC028 M02/M05 A2986 RMK AO2 SLP118 T10171050

More Conditions Fewer Conditions

Pressure 29.88 in
Visibility 9.0 miles
Clouds Overcast 2800 ft
Windchill 30 °F
Dew Point 20 °F
Humidity 64%
Rainfall 0.00 in
Snow Depth Not available.
UV 0 out of 12
Pollen .40 out of 12
Air Quality Not available.
Flu Activity Not available.
METAR KARB 041053Z AUTO 26005KT 9SM OVC028 M02/M05 A2986 RMK AO2 SLP118 T10171050

More Conditions Fewer Conditions

10-Day Weather Forecast

Almanac

Astronomy

Mar. 04, 2015 Rise Set
Actual Time
Civil Twilight
Nautical Twilight
Astronomical Twilight
Moon
Length of Visible Light
Length of Day
Tomorrow will be .
, % of the Moon is Illuminated

Today's Extremes

State Highs State Lows

Community

WunderPhotos

Upload Photos

1,802,435 photos uploaded!

WunderBlogs® & News

Nearby

Air Quality

  Air Quality AQ Index Pollutant
Not available.

Snow Depth

Station Depth Elevation

Earthquake Activity

City Distance Mag. Time & Date
Minimum magnitude displayed is 2.5.

Coastal Water Temperatures

Place Temperature

Nearby Weather Stations